Anderson Springs, California
Current Conditions -  °F | °C
As of 1:19 AM on Friday 19 Dec 2014 (Local Time) from KSTS Reporting Station
Light Rain Light Rain  
Wind Chill: 11°   Ceiling: 900
Heat Index: 11°   Visibility: 2.5mi
Dew Point: 11°   Wind: 5mph
Humidity: 100%   Direction: 150°SSE
Pressure: 30.11"   Gusts: NA
Location:  38.7763°N, 122.598°W
Report Text: KSTS 190919Z AUTO 15004KT 2 1/2SM -RA BR SCT006 OVC009 11/11 A3011 RMK AO2 CIG 009V013 P0002
Loading
Personal Weather Stations






























Interactive Weather Map New forecast layout! Learn more

10-Day Weather Forecast

Advertisements
Track Severe Weather on mobile